createdAt,value
2019-06-08T00:00:25.328Z,17.00
2019-06-08T00:03:03.118Z,17.00
2019-06-08T00:05:40.964Z,17.00
2019-06-08T00:08:19.260Z,17.00
2019-06-08T00:10:58.911Z,17.00
2019-06-08T00:13:37.945Z,17.00
2019-06-08T00:16:17.392Z,16.90
2019-06-08T00:18:58.050Z,16.90
2019-06-08T00:21:43.017Z,16.90
2019-06-08T00:24:31.244Z,16.90
2019-06-08T00:27:10.754Z,16.80
2019-06-08T00:29:54.852Z,16.80
2019-06-08T00:32:53.085Z,16.80
2019-06-08T00:35:30.728Z,16.70
2019-06-08T00:38:12.547Z,16.70
2019-06-08T00:40:50.430Z,16.70
2019-06-08T00:43:28.993Z,16.70
2019-06-08T00:46:07.619Z,16.70
2019-06-08T00:48:49.282Z,16.70
2019-06-08T00:51:30.267Z,16.70
2019-06-08T00:54:12.923Z,16.80
2019-06-08T00:56:55.938Z,16.70
2019-06-08T00:59:33.610Z,16.70
2019-06-08T01:02:30.585Z,16.70
2019-06-08T01:05:15.297Z,16.70
2019-06-08T01:07:52.827Z,16.70
2019-06-08T01:10:35.870Z,16.60
2019-06-08T01:13:13.162Z,16.50
2019-06-08T01:15:57.459Z,16.50
2019-06-08T01:18:42.827Z,16.50
2019-06-08T01:21:30.097Z,16.40
2019-06-08T01:24:10.672Z,16.40
2019-06-08T01:26:54.704Z,16.40
2019-06-08T01:29:32.639Z,16.30
2019-06-08T01:32:14.111Z,16.30
2019-06-08T01:34:52.543Z,16.30
2019-06-08T01:37:31.386Z,16.30
2019-06-08T01:40:11.858Z,16.30
2019-06-08T01:42:53.006Z,16.30
2019-06-08T01:45:32.875Z,16.30
2019-06-08T01:48:20.140Z,16.30
2019-06-08T01:50:51.683Z,16.30
2019-06-08T01:53:43.502Z,16.30
2019-06-08T01:56:36.944Z,16.30
2019-06-08T01:59:18.412Z,16.30
2019-06-08T02:01:57.378Z,16.30
2019-06-08T02:04:35.556Z,16.20
2019-06-08T02:07:17.947Z,16.20
2019-06-08T02:09:57.424Z,16.20
2019-06-08T02:12:35.939Z,16.10
2019-06-08T02:15:13.920Z,16.10
2019-06-08T02:17:52.579Z,16.10
2019-06-08T02:20:31.383Z,16.10
2019-06-08T02:23:09.192Z,16.00
2019-06-08T02:25:51.092Z,16.00
2019-06-08T02:28:31.814Z,16.00
2019-06-08T02:31:13.355Z,15.90
2019-06-08T02:33:54.375Z,15.90
2019-06-08T02:39:57.752Z,15.90
2019-06-08T02:42:40.215Z,15.90
2019-06-08T02:45:32.141Z,15.80
2019-06-08T02:48:12.911Z,15.80
2019-06-08T02:50:55.091Z,15.70
2019-06-08T02:53:34.135Z,15.70
2019-06-08T02:56:14.820Z,15.60
2019-06-08T02:58:52.741Z,15.60
2019-06-08T03:01:38.869Z,15.60
2019-06-08T03:04:16.979Z,15.50
2019-06-08T03:07:02.109Z,15.50
2019-06-08T03:09:41.394Z,15.50
2019-06-08T03:12:19.980Z,15.50
2019-06-08T03:15:02.596Z,15.40
2019-06-08T03:17:41.887Z,15.40
2019-06-08T03:20:20.075Z,15.50
2019-06-08T03:22:58.307Z,15.50
2019-06-08T03:25:52.774Z,15.60
2019-06-08T03:28:26.692Z,15.60
2019-06-08T03:31:08.719Z,15.70
2019-06-08T03:33:55.678Z,15.70
2019-06-08T03:36:51.601Z,15.70
2019-06-08T03:39:27.977Z,15.80
2019-06-08T03:42:05.937Z,15.80
2019-06-08T03:44:49.176Z,15.90
2019-06-08T03:47:41.315Z,15.90
2019-06-08T03:50:28.326Z,16.00
2019-06-08T03:53:07.198Z,16.10
2019-06-08T03:55:46.663Z,16.10
2019-06-08T03:58:33.968Z,16.20
2019-06-08T04:01:14.639Z,16.20
2019-06-08T04:04:08.451Z,16.30
2019-06-08T04:06:54.213Z,16.40
2019-06-08T04:09:31.644Z,16.50
2019-06-08T04:12:18.054Z,16.60
2019-06-08T04:14:59.761Z,16.70
2019-06-08T04:17:37.902Z,16.80
2019-06-08T04:20:15.554Z,16.90
2019-06-08T04:22:53.015Z,17.00
2019-06-08T04:25:38.313Z,17.00
2019-06-08T04:28:19.873Z,17.10
2019-06-08T04:31:01.757Z,17.20
2019-06-08T04:33:42.119Z,17.30
2019-06-08T04:36:48.580Z,17.40
2019-06-08T04:39:25.846Z,17.50
2019-06-08T04:42:06.359Z,17.60
2019-06-08T04:44:46.936Z,17.70
2019-06-08T04:47:31.077Z,17.80
2019-06-08T04:50:22.422Z,17.90
2019-06-08T04:52:54.917Z,18.10
2019-06-08T04:55:33.041Z,18.20
2019-06-08T04:58:12.854Z,18.40
2019-06-08T05:00:51.194Z,18.60
2019-06-08T05:03:29.633Z,18.80
2019-06-08T05:06:08.837Z,18.90
2019-06-08T05:08:47.359Z,18.90
2019-06-08T05:11:25.485Z,18.90
2019-06-08T05:14:05.613Z,18.90
2019-06-08T05:16:45.362Z,18.90
2019-06-08T05:19:23.587Z,18.90
2019-06-08T05:22:02.743Z,18.90
2019-06-08T05:24:43.497Z,18.90
2019-06-08T05:27:20.876Z,18.90
2019-06-08T05:29:58.077Z,18.90
2019-06-08T05:32:36.458Z,18.90
2019-06-08T05:35:15.870Z,18.90
2019-06-08T05:37:55.722Z,18.90
2019-06-08T05:40:53.233Z,18.90
2019-06-08T05:43:31.344Z,18.90
2019-06-08T05:46:08.548Z,19.00
2019-06-08T05:48:45.957Z,19.00
2019-06-08T05:51:23.106Z,19.00
2019-06-08T05:54:02.863Z,19.00
2019-06-08T05:56:39.803Z,19.00
2019-06-08T05:59:17.331Z,19.00
2019-06-08T06:01:56.770Z,19.00
2019-06-08T06:04:34.081Z,19.00
2019-06-08T06:07:11.853Z,19.00
2019-06-08T06:09:52.179Z,19.00
2019-06-08T06:12:29.569Z,19.10
2019-06-08T06:15:07.271Z,19.10
2019-06-08T06:17:46.711Z,19.10
2019-06-08T06:20:23.503Z,19.20
2019-06-08T06:23:01.252Z,19.30
2019-06-08T06:25:38.991Z,19.40
2019-06-08T06:28:16.135Z,19.50
2019-06-08T06:30:57.335Z,19.50
2019-06-08T06:33:35.112Z,19.60
2019-06-08T06:36:12.830Z,19.60
2019-06-08T06:38:50.548Z,19.60
2019-06-08T06:41:28.260Z,19.70
2019-06-08T06:44:06.273Z,19.70
2019-06-08T06:46:44.015Z,19.70
2019-06-08T06:49:21.688Z,19.80
2019-06-08T06:51:59.397Z,19.80
2019-06-08T06:54:37.188Z,20.00
2019-06-08T06:57:14.948Z,20.30
2019-06-08T06:59:54.027Z,20.30
2019-06-08T07:02:31.925Z,20.30
2019-06-08T07:05:09.697Z,20.10
2019-06-08T07:07:48.150Z,20.10
2019-06-08T07:10:25.984Z,20.00
2019-06-08T07:13:03.708Z,19.90
2019-06-08T07:15:42.054Z,19.80
2019-06-08T07:18:19.817Z,19.70
2019-06-08T07:20:58.585Z,19.70
2019-06-08T07:23:37.348Z,19.60
2019-06-08T07:26:15.027Z,19.60
2019-06-08T07:28:53.608Z,19.60
2019-06-08T07:31:33.500Z,19.60
2019-06-08T07:34:11.270Z,19.50
2019-06-08T07:36:51.204Z,19.60
2019-06-08T07:39:31.203Z,19.70
2019-06-08T07:42:08.909Z,19.80
2019-06-08T07:44:46.886Z,19.90
2019-06-08T07:47:24.533Z,20.00
2019-06-08T07:50:04.656Z,20.10
2019-06-08T07:52:42.006Z,20.10
2019-06-08T07:55:19.723Z,20.60
2019-06-08T07:57:57.467Z,21.10
2019-06-08T08:00:35.158Z,21.40
2019-06-08T08:03:19.880Z,21.20
2019-06-08T08:05:58.596Z,21.10
2019-06-08T08:08:36.431Z,21.30
2019-06-08T08:11:14.147Z,21.90
2019-06-08T08:13:54.757Z,22.50
2019-06-08T08:16:32.594Z,22.80
2019-06-08T08:19:10.298Z,23.40
2019-06-08T08:21:50.177Z,23.50
2019-06-08T08:24:27.338Z,23.30
2019-06-08T08:27:05.056Z,23.00
2019-06-08T08:29:42.792Z,23.00
2019-06-08T08:32:20.525Z,23.00
2019-06-08T08:35:00.340Z,23.30
2019-06-08T08:37:38.066Z,22.80
2019-06-08T08:40:17.875Z,22.40
2019-06-08T08:42:55.712Z,22.40
2019-06-08T08:45:37.206Z,22.30
2019-06-08T08:48:24.464Z,22.30
2019-06-08T08:50:54.147Z,22.50
2019-06-08T08:53:31.960Z,22.50
2019-06-08T08:56:09.733Z,22.50
2019-06-08T08:58:47.840Z,22.70
2019-06-08T09:01:28.549Z,22.90
2019-06-08T09:04:05.335Z,23.50
2019-06-08T09:06:43.154Z,23.80
2019-06-08T09:09:21.705Z,24.00
2019-06-08T09:12:02.259Z,24.10
2019-06-08T09:14:41.709Z,23.70
2019-06-08T09:17:18.405Z,23.30
2019-06-08T09:19:58.800Z,23.20
2019-06-08T09:22:52.003Z,23.20
2019-06-08T09:25:14.897Z,23.30
2019-06-08T09:27:53.342Z,23.50
2019-06-08T09:30:31.957Z,23.60
2019-06-08T09:33:18.609Z,23.60
2019-06-08T09:35:58.188Z,23.50
2019-06-08T09:38:35.292Z,23.40
2019-06-08T09:41:13.025Z,23.50
2019-06-08T09:43:50.748Z,23.30
2019-06-08T09:46:28.479Z,23.10
2019-06-08T09:49:11.010Z,23.10
2019-06-08T09:51:45.599Z,23.10
2019-06-08T09:54:23.281Z,23.00
2019-06-08T09:57:02.772Z,22.60
2019-06-08T09:59:40.236Z,22.40
2019-06-08T10:02:18.510Z,22.20
2019-06-08T10:05:00.704Z,21.80
2019-06-08T10:07:38.860Z,21.40
2019-06-08T10:10:17.990Z,21.10
2019-06-08T10:12:56.954Z,20.90
2019-06-08T10:15:35.227Z,20.50
2019-06-08T10:18:12.929Z,20.50
2019-06-08T10:20:50.688Z,20.40
2019-06-08T10:23:34.276Z,20.40
2019-06-08T10:26:08.809Z,20.50
2019-06-08T10:28:48.249Z,20.60
2019-06-08T10:31:38.311Z,20.60
2019-06-08T10:34:06.669Z,20.60
2019-06-08T10:36:44.593Z,20.50
2019-06-08T10:39:22.299Z,20.40
2019-06-08T10:42:03.159Z,20.40
2019-06-08T10:44:39.904Z,20.30
2019-06-08T10:47:17.721Z,20.10
2019-06-08T10:49:55.363Z,19.80
2019-06-08T10:52:33.067Z,19.70
2019-06-08T10:55:12.223Z,19.60
2019-06-08T10:57:50.099Z,19.40
2019-06-08T11:00:29.435Z,19.30
2019-06-08T11:03:10.047Z,19.10
2019-06-08T11:05:48.377Z,19.00
2019-06-08T11:08:27.597Z,18.80
2019-06-08T11:11:09.885Z,18.60
2019-06-08T11:13:50.192Z,18.50
2019-06-08T11:16:28.687Z,18.40
2019-06-08T11:19:12.902Z,18.40
2019-06-08T11:21:48.670Z,18.40
2019-06-08T11:24:28.784Z,18.30
2019-06-08T11:27:12.480Z,18.20
2019-06-08T11:29:50.193Z,18.10
2019-06-08T11:32:28.268Z,17.90
2019-06-08T11:35:10.640Z,17.90
2019-06-08T11:37:48.698Z,17.70
2019-06-08T11:40:27.703Z,17.50
2019-06-08T11:43:04.728Z,17.40
2019-06-08T11:45:43.193Z,17.20
2019-06-08T11:48:20.337Z,17.10
2019-06-08T11:50:58.550Z,16.90
2019-06-08T11:53:38.451Z,16.90
2019-06-08T11:56:18.246Z,16.90
2019-06-08T11:58:57.816Z,16.90
2019-06-08T12:01:34.286Z,16.90
2019-06-08T12:04:12.456Z,17.00
2019-06-08T12:06:51.183Z,17.00
2019-06-08T12:09:29.905Z,17.10
2019-06-08T12:12:13.574Z,17.20
2019-06-08T12:14:47.689Z,17.30
2019-06-08T12:17:27.159Z,17.40
2019-06-08T12:20:05.498Z,17.50
2019-06-08T12:22:44.422Z,17.60
2019-06-08T12:25:22.239Z,17.70
2019-06-08T12:28:01.022Z,17.90
2019-06-08T12:30:40.773Z,18.00
2019-06-08T12:33:19.229Z,18.10
2019-06-08T12:35:58.088Z,18.30
2019-06-08T12:38:37.918Z,18.50
2019-06-08T12:41:15.863Z,18.60
2019-06-08T12:43:55.047Z,18.70
2019-06-08T12:46:34.479Z,18.80
2019-06-08T12:49:13.217Z,18.90
2019-06-08T12:51:53.673Z,18.90
2019-06-08T12:54:31.984Z,18.90
2019-06-08T12:57:13.752Z,19.00
2019-06-08T12:59:51.095Z,19.00
2019-06-08T13:02:31.258Z,19.00
2019-06-08T13:05:12.529Z,19.10
2019-06-08T13:07:49.594Z,19.20
2019-06-08T13:10:27.733Z,19.20
2019-06-08T13:13:05.486Z,19.30
2019-06-08T13:15:43.168Z,19.40
2019-06-08T13:18:21.473Z,19.50
2019-06-08T13:21:07.553Z,19.80
2019-06-08T13:23:41.302Z,20.00
2019-06-08T13:26:24.885Z,20.30
2019-06-08T13:29:09.212Z,20.50
2019-06-08T13:31:46.736Z,20.70
2019-06-08T13:34:24.636Z,20.90
2019-06-08T13:37:02.289Z,21.00
2019-06-08T13:39:40.020Z,21.10
2019-06-08T13:42:18.513Z,21.30
2019-06-08T13:44:58.797Z,21.50
2019-06-08T13:47:40.978Z,21.60
2019-06-08T13:50:27.855Z,21.70
2019-06-08T13:52:58.733Z,21.80
2019-06-08T13:55:49.737Z,21.80
2019-06-08T13:58:20.796Z,21.90
2019-06-08T14:00:59.488Z,21.90
2019-06-08T14:03:35.399Z,22.00
2019-06-08T14:06:14.159Z,22.00
2019-06-08T14:08:52.974Z,22.10
2019-06-08T14:11:31.493Z,22.20
2019-06-08T14:14:09.279Z,22.20
2019-06-08T14:16:50.418Z,22.30
2019-06-08T14:19:31.545Z,22.40
2019-06-08T14:22:11.713Z,22.60
2019-06-08T14:24:51.287Z,22.70
2019-06-08T14:27:33.232Z,22.90
2019-06-08T14:30:09.975Z,22.90
2019-06-08T14:32:48.378Z,23.10
2019-06-08T14:35:27.173Z,23.20
2019-06-08T14:38:07.564Z,23.30
2019-06-08T14:40:47.484Z,23.50
2019-06-08T14:43:29.681Z,23.60
2019-06-08T14:46:08.059Z,23.70
2019-06-08T14:48:46.048Z,23.80
2019-06-08T14:51:28.643Z,23.90
2019-06-08T14:54:05.032Z,23.70
2019-06-08T14:56:42.687Z,23.60
2019-06-08T14:59:21.927Z,23.60
2019-06-08T15:01:59.694Z,23.70
2019-06-08T15:04:39.869Z,23.80
2019-06-08T15:07:20.152Z,23.90
2019-06-08T15:09:58.072Z,24.00
2019-06-08T15:12:38.447Z,24.20
2019-06-08T15:15:19.826Z,24.20
2019-06-08T15:17:58.255Z,24.20
2019-06-08T15:20:37.938Z,24.00
2019-06-08T15:23:19.258Z,23.80
2019-06-08T15:25:58.143Z,23.80
2019-06-08T15:28:36.260Z,23.70
2019-06-08T15:31:13.486Z,23.80
2019-06-08T15:33:51.135Z,23.80
2019-06-08T15:36:30.908Z,23.90
2019-06-08T15:39:08.287Z,23.90
2019-06-08T15:41:48.571Z,23.90
2019-06-08T15:44:26.661Z,23.80
2019-06-08T15:47:04.964Z,23.60
2019-06-08T15:49:43.308Z,23.60
2019-06-08T15:52:24.396Z,23.60
2019-06-08T15:55:02.513Z,23.70
2019-06-08T15:57:42.357Z,23.80
2019-06-08T16:00:21.256Z,24.00
2019-06-08T16:03:01.979Z,24.10
2019-06-08T16:05:39.805Z,24.20
2019-06-08T16:08:17.677Z,24.20
2019-06-08T16:10:55.482Z,24.20
2019-06-08T16:13:33.343Z,24.20
2019-06-08T16:16:11.469Z,24.10
2019-06-08T16:18:52.379Z,24.10
2019-06-08T16:21:31.642Z,24.20
2019-06-08T16:24:09.697Z,24.20
2019-06-08T16:26:53.233Z,24.40
2019-06-08T16:29:29.399Z,24.50
2019-06-08T16:32:07.296Z,24.40
2019-06-08T16:34:45.124Z,24.40
2019-06-08T16:37:22.980Z,24.40
2019-06-08T16:40:01.784Z,24.30
2019-06-08T16:42:39.734Z,24.20
2019-06-08T16:45:17.491Z,24.20
2019-06-08T16:47:55.222Z,24.10
2019-06-08T16:50:34.262Z,24.00
2019-06-08T16:53:17.875Z,23.90
2019-06-08T16:55:55.576Z,24.00
2019-06-08T16:58:34.285Z,24.00
2019-06-08T17:01:12.135Z,24.00
2019-06-08T17:03:49.840Z,24.10
2019-06-08T17:06:27.563Z,24.10
2019-06-08T17:09:07.819Z,24.20
2019-06-08T17:11:45.534Z,24.30
2019-06-08T17:14:25.123Z,24.30
2019-06-08T17:17:18.379Z,24.40
2019-06-08T17:19:56.171Z,24.30
2019-06-08T17:22:34.516Z,24.40
2019-06-08T17:25:12.307Z,24.30
2019-06-08T17:27:50.016Z,24.30
2019-06-08T17:30:27.664Z,24.30
2019-06-08T17:33:05.419Z,24.20
2019-06-08T17:35:43.068Z,24.20
2019-06-08T17:38:20.808Z,24.10
2019-06-08T17:40:58.453Z,24.00
2019-06-08T17:43:36.212Z,24.00
2019-06-08T17:46:13.937Z,23.90
2019-06-08T17:48:51.829Z,23.70
2019-06-08T17:51:29.500Z,23.50
2019-06-08T17:54:07.413Z,23.40
2019-06-08T17:56:45.062Z,23.20
2019-06-08T17:59:41.675Z,23.20
2019-06-08T18:02:27.432Z,23.10
2019-06-08T18:04:59.810Z,23.00
2019-06-08T18:07:38.998Z,23.00
2019-06-08T18:10:21.955Z,22.80
2019-06-08T18:12:59.846Z,22.70
2019-06-08T18:15:39.078Z,22.60
2019-06-08T18:18:17.835Z,22.50
2019-06-08T18:20:57.986Z,22.30
2019-06-08T18:24:12.219Z,22.30
2019-06-08T18:26:50.609Z,22.10
2019-06-08T18:29:28.963Z,22.10
2019-06-08T18:32:07.346Z,21.90
2019-06-08T18:34:48.034Z,21.90
2019-06-08T18:37:25.790Z,21.80
2019-06-08T18:40:07.237Z,21.80
2019-06-08T18:42:47.977Z,21.70
2019-06-08T18:46:00.803Z,21.60
2019-06-08T18:48:41.735Z,21.50
2019-06-08T18:51:18.078Z,21.30
2019-06-08T18:54:08.488Z,21.10
2019-06-08T18:56:38.725Z,21.00
2019-06-08T18:59:17.656Z,20.80
2019-06-08T19:01:54.768Z,20.50
2019-06-08T19:04:32.547Z,20.20
2019-06-08T19:07:13.092Z,20.10
2019-06-08T19:09:50.861Z,19.80
2019-06-08T19:12:31.571Z,19.70
2019-06-08T19:15:11.570Z,19.50
2019-06-08T19:17:54.442Z,19.40
2019-06-08T19:20:30.687Z,19.20
2019-06-08T19:23:09.093Z,19.10
2019-06-08T19:25:49.514Z,18.90
2019-06-08T19:28:36.250Z,18.80
2019-06-08T19:31:11.469Z,18.60
2019-06-08T19:33:53.494Z,18.50
2019-06-08T19:36:28.528Z,18.40
2019-06-08T19:39:08.248Z,18.20
2019-06-08T19:41:49.211Z,18.10
2019-06-08T19:44:27.622Z,18.00
2019-06-08T19:47:04.644Z,18.00
2019-06-08T19:49:44.606Z,17.90
2019-06-08T19:52:23.555Z,17.80
2019-06-08T19:55:01.617Z,17.70
2019-06-08T19:57:41.302Z,17.60
2019-06-08T20:00:28.257Z,17.50
2019-06-08T20:03:07.666Z,17.40
2019-06-08T20:05:50.109Z,17.30
2019-06-08T20:08:28.320Z,17.20
2019-06-08T20:11:08.315Z,17.10
2019-06-08T20:17:08.109Z,17.00
2019-06-08T20:19:48.054Z,16.90
2019-06-08T20:22:27.644Z,16.80
2019-06-08T20:25:10.471Z,16.70
2019-06-08T20:27:51.648Z,16.50
2019-06-08T20:30:50.596Z,16.40
2019-06-08T20:33:41.312Z,16.30
2019-06-08T20:36:18.552Z,16.20
2019-06-08T20:38:58.192Z,16.10
2019-06-08T20:41:37.713Z,16.10
2019-06-08T20:44:16.261Z,16.00
2019-06-08T20:46:57.624Z,15.90
2019-06-08T20:49:37.184Z,15.80
2019-06-08T20:52:23.666Z,15.70
2019-06-08T20:55:02.792Z,15.60
2019-06-08T20:57:45.114Z,15.50
2019-06-08T21:00:25.159Z,15.40
2019-06-08T21:03:08.208Z,15.30
2019-06-08T21:05:54.174Z,15.20
2019-06-08T21:08:31.540Z,15.10
2019-06-08T21:11:11.837Z,15.00
2019-06-08T21:14:13.573Z,15.00
2019-06-08T21:16:55.708Z,14.90
2019-06-08T21:19:37.254Z,14.80
2019-06-08T21:22:18.483Z,14.70
2019-06-08T21:25:00.027Z,14.70
2019-06-08T21:28:04.470Z,14.50
2019-06-08T21:37:28.068Z,14.00
2019-06-08T21:40:08.478Z,13.90
2019-06-08T21:42:52.138Z,13.80
2019-06-08T21:45:33.042Z,13.70
2019-06-08T21:48:21.785Z,13.60
2019-06-08T21:51:33.921Z,13.50
2019-06-08T21:54:21.398Z,13.40
2019-06-08T21:57:13.898Z,13.40
2019-06-08T22:00:40.548Z,13.30
2019-06-08T22:03:28.156Z,13.30
2019-06-08T22:06:41.435Z,13.20
2019-06-08T22:09:30.523Z,13.20
2019-06-08T22:12:17.350Z,13.10
2019-06-08T22:15:10.300Z,13.00
2019-06-08T22:18:00.133Z,13.00
2019-06-08T22:20:51.723Z,12.90
2019-06-08T22:23:40.113Z,12.90
2019-06-08T22:27:00.384Z,12.90
2019-06-08T22:29:39.507Z,12.80
2019-06-08T22:32:38.465Z,12.70
2019-06-08T22:35:40.251Z,12.60
2019-06-08T22:38:20.220Z,12.60
2019-06-08T22:41:00.700Z,12.50
2019-06-08T22:44:37.469Z,12.40
2019-06-08T22:47:58.662Z,12.40
2019-06-08T22:50:44.760Z,12.40
2019-06-08T22:53:34.854Z,12.30
2019-06-08T22:56:39.378Z,12.30
2019-06-08T23:00:20.421Z,12.30
2019-06-08T23:03:06.215Z,12.20
2019-06-08T23:06:21.133Z,12.20
2019-06-08T23:09:19.212Z,12.20
2019-06-08T23:12:22.660Z,12.10
2019-06-08T23:15:37.355Z,12.10
2019-06-08T23:18:24.979Z,12.10
2019-06-08T23:21:33.122Z,12.10
2019-06-08T23:24:38.649Z,12.00
2019-06-08T23:27:37.791Z,11.90
2019-06-08T23:30:29.610Z,11.80
2019-06-08T23:33:20.406Z,11.80
2019-06-08T23:36:39.570Z,11.70
2019-06-08T23:39:01.111Z,11.70
2019-06-08T23:42:07.951Z,11.60
2019-06-08T23:45:19.723Z,11.60
2019-06-08T23:48:27.883Z,11.50
2019-06-08T23:51:18.746Z,11.50
2019-06-08T23:54:23.921Z,11.50
